createdAt,value
2017-07-06T00:01:08.623Z,12.10
2017-07-06T00:03:35.439Z,11.40
2017-07-06T00:06:03.066Z,11.10
2017-07-06T00:08:29.899Z,10.40
2017-07-06T00:10:56.743Z,10.90
2017-07-06T00:13:23.986Z,11.20
2017-07-06T00:15:50.830Z,12.27
2017-07-06T00:18:17.672Z,11.83
2017-07-06T00:20:44.587Z,12.10
2017-07-06T00:23:12.157Z,11.23
2017-07-06T00:25:39.075Z,13.23
2017-07-06T00:28:05.902Z,12.60
2017-07-06T00:30:32.730Z,12.20
2017-07-06T00:32:59.625Z,11.73
2017-07-06T00:35:26.627Z,12.93
2017-07-06T00:37:53.471Z,11.20
2017-07-06T00:40:20.308Z,12.83
2017-07-06T00:42:47.217Z,14.17
2017-07-06T00:45:14.135Z,13.50
2017-07-06T00:47:40.968Z,11.87
2017-07-06T00:50:07.870Z,13.57
2017-07-06T00:52:34.767Z,15.10
2017-07-06T00:55:01.586Z,14.90
2017-07-06T00:57:28.416Z,14.50
2017-07-06T00:59:55.349Z,13.73
2017-07-06T01:02:22.263Z,13.20
2017-07-06T01:04:49.824Z,16.03
2017-07-06T01:07:16.650Z,15.73
2017-07-06T01:09:43.539Z,14.90
2017-07-06T01:12:10.357Z,14.20
2017-07-06T01:14:37.322Z,14.07
2017-07-06T01:17:04.132Z,15.70
2017-07-06T01:19:31.714Z,15.67
2017-07-06T01:21:58.616Z,15.93
2017-07-06T01:24:25.455Z,15.37
2017-07-06T01:26:52.330Z,14.77
2017-07-06T01:29:19.987Z,15.63
2017-07-06T01:31:47.563Z,15.43
2017-07-06T01:34:15.139Z,15.60
2017-07-06T01:36:42.082Z,16.43
2017-07-06T01:39:08.927Z,16.33
2017-07-06T01:41:35.834Z,14.10
2017-07-06T01:44:02.679Z,15.73
2017-07-06T01:46:29.503Z,15.57
2017-07-06T01:48:56.403Z,15.37
2017-07-06T01:51:23.238Z,15.57
2017-07-06T01:53:50.807Z,13.77
2017-07-06T01:56:17.738Z,13.77
2017-07-06T01:58:45.290Z,14.80
2017-07-06T02:01:12.850Z,14.20
2017-07-06T02:03:40.500Z,13.97
2017-07-06T02:06:07.383Z,17.47
2017-07-06T02:08:34.264Z,15.93
2017-07-06T02:11:01.104Z,16.63
2017-07-06T02:13:28.054Z,16.20
2017-07-06T02:15:55.054Z,15.40
2017-07-06T02:18:22.614Z,16.13
2017-07-06T02:20:50.183Z,18.17
2017-07-06T02:23:17.075Z,17.07
2017-07-06T02:25:43.899Z,18.90
2017-07-06T02:28:10.735Z,17.50
2017-07-06T02:30:37.623Z,18.67
2017-07-06T02:33:04.439Z,17.80
2017-07-06T02:35:31.314Z,16.93
2017-07-06T02:37:58.227Z,18.60
2017-07-06T02:40:25.050Z,18.70
2017-07-06T02:42:51.871Z,17.37
2017-07-06T02:45:19.514Z,19.30
2017-07-06T02:47:46.359Z,18.30
2017-07-06T02:50:13.280Z,18.23
2017-07-06T02:52:40.175Z,19.20
2017-07-06T02:55:06.994Z,17.80
2017-07-06T02:57:33.890Z,19.20
2017-07-06T03:00:00.706Z,19.53
2017-07-06T03:02:27.607Z,21.27
2017-07-06T03:04:54.520Z,16.57
2017-07-06T03:07:21.367Z,20.93
2017-07-06T03:09:48.192Z,20.30
2017-07-06T03:12:15.075Z,21.50
2017-07-06T03:14:41.909Z,21.80
2017-07-06T03:17:08.739Z,20.57
2017-07-06T03:19:35.634Z,20.30
2017-07-06T03:22:02.471Z,19.80
2017-07-06T03:24:29.325Z,21.67
2017-07-06T03:26:56.955Z,22.23
2017-07-06T03:29:23.846Z,21.57
2017-07-06T03:31:51.467Z,20.77
2017-07-06T03:34:18.296Z,20.00
2017-07-06T03:36:45.196Z,19.87
2017-07-06T03:39:12.024Z,19.37
2017-07-06T03:41:38.851Z,18.30
2017-07-06T03:44:05.745Z,19.47
2017-07-06T03:46:32.559Z,20.03
2017-07-06T03:48:59.414Z,20.57
2017-07-06T03:51:27.063Z,20.30
2017-07-06T03:53:53.964Z,19.47
2017-07-06T03:56:20.881Z,19.17
2017-07-06T03:58:47.691Z,21.50
2017-07-06T04:01:14.643Z,21.20
2017-07-06T04:03:41.443Z,21.00
2017-07-06T04:06:08.291Z,19.13
2017-07-06T04:08:35.167Z,21.23
2017-07-06T04:11:02.047Z,24.73
2017-07-06T04:13:28.859Z,21.83
2017-07-06T04:15:55.739Z,23.27
2017-07-06T04:18:22.640Z,22.67
2017-07-06T04:20:49.476Z,21.40
2017-07-06T04:23:16.361Z,22.50
2017-07-06T04:25:44.301Z,20.83
2017-07-06T04:28:11.531Z,20.13
2017-07-06T04:30:38.367Z,18.80
2017-07-06T04:33:05.272Z,20.83
2017-07-06T04:35:32.115Z,18.80
2017-07-06T04:37:58.944Z,17.27
2017-07-06T04:40:26.596Z,18.40
2017-07-06T04:42:53.515Z,15.93
2017-07-06T04:45:20.363Z,17.17
2017-07-06T04:47:47.187Z,16.27
2017-07-06T04:50:14.074Z,14.93
2017-07-06T04:52:40.918Z,14.53
2017-07-06T04:55:07.930Z,15.17
2017-07-06T04:57:34.771Z,14.00
2017-07-06T05:00:01.620Z,15.07
2017-07-06T05:02:28.565Z,15.50
2017-07-06T05:04:55.507Z,14.47
2017-07-06T05:07:22.319Z,14.53
2017-07-06T05:09:49.182Z,15.23
2017-07-06T05:12:16.071Z,14.67
2017-07-06T05:14:42.918Z,13.43
2017-07-06T05:17:09.800Z,13.67
2017-07-06T05:19:36.723Z,15.03
2017-07-06T05:22:04.309Z,14.23
2017-07-06T05:24:31.148Z,14.27
2017-07-06T05:26:58.047Z,14.20
2017-07-06T05:29:24.887Z,14.63
2017-07-06T05:31:51.814Z,13.97
2017-07-06T05:34:18.665Z,13.80
2017-07-06T05:36:45.532Z,14.93
2017-07-06T05:39:12.457Z,14.00
2017-07-06T05:41:39.317Z,14.00
2017-07-06T05:44:06.164Z,14.43
2017-07-06T05:46:33.073Z,13.30
2017-07-06T05:48:59.909Z,14.47
2017-07-06T05:51:26.765Z,16.27
2017-07-06T05:53:53.684Z,15.80
2017-07-06T05:56:20.586Z,16.33
2017-07-06T05:58:47.436Z,15.23
2017-07-06T06:01:14.427Z,15.07
2017-07-06T06:03:41.290Z,15.07
2017-07-06T06:06:08.149Z,13.77
2017-07-06T06:08:35.059Z,15.73
2017-07-06T06:11:01.914Z,14.90
2017-07-06T06:13:28.812Z,14.53
2017-07-06T06:15:55.662Z,15.20
2017-07-06T06:18:23.243Z,14.07
2017-07-06T06:20:50.142Z,17.37
2017-07-06T06:23:17.113Z,15.13
2017-07-06T06:25:43.949Z,16.00
2017-07-06T06:28:10.857Z,16.47
2017-07-06T06:30:37.707Z,15.60
2017-07-06T06:33:04.546Z,15.97
2017-07-06T06:35:31.450Z,16.87
2017-07-06T06:37:59.105Z,16.77
2017-07-06T06:40:26.692Z,15.83
2017-07-06T06:42:53.524Z,15.77
2017-07-06T06:45:21.156Z,15.30
2017-07-06T06:47:52.156Z,15.10
2017-07-06T06:50:18.981Z,14.53
2017-07-06T06:52:46.301Z,14.60
2017-07-06T06:55:14.647Z,14.20
2017-07-06T06:57:41.488Z,13.50
2017-07-06T07:00:08.304Z,12.67
2017-07-06T07:02:35.204Z,13.63
2017-07-06T07:05:02.025Z,14.30
2017-07-06T07:07:28.954Z,14.10
2017-07-06T07:09:55.800Z,13.30
2017-07-06T07:15:05.592Z,14.50
2017-07-06T07:17:32.428Z,14.57
2017-07-06T07:19:59.249Z,14.20
2017-07-06T07:22:26.126Z,12.80
2017-07-06T07:24:53.029Z,14.60
2017-07-06T07:27:19.942Z,14.27
2017-07-06T07:29:46.792Z,13.00
2017-07-06T07:32:14.549Z,13.13
2017-07-06T07:34:42.135Z,11.93
2017-07-06T07:37:09.068Z,11.67
2017-07-06T07:39:36.635Z,14.30
2017-07-06T07:42:04.306Z,12.67
2017-07-06T07:44:31.243Z,11.70
2017-07-06T07:46:58.088Z,13.00
2017-07-06T07:49:25.648Z,12.70
2017-07-06T07:51:53.285Z,12.97
2017-07-06T07:54:20.227Z,12.00
2017-07-06T07:56:47.064Z,13.60
2017-07-06T07:59:13.900Z,12.23
2017-07-06T08:01:40.779Z,11.73
2017-07-06T08:04:08.439Z,12.00
2017-07-06T08:06:36.085Z,11.37
2017-07-06T08:09:03.133Z,16.47
2017-07-06T08:11:29.968Z,11.73
2017-07-06T08:13:56.817Z,11.33
2017-07-06T08:16:23.732Z,11.77
2017-07-06T08:18:50.627Z,10.60
2017-07-06T08:21:18.203Z,11.63
2017-07-06T08:23:45.104Z,11.40
2017-07-06T08:26:12.023Z,10.50
2017-07-06T08:28:38.926Z,10.63
2017-07-06T08:31:06.539Z,11.13
2017-07-06T08:33:33.466Z,10.10
2017-07-06T08:36:00.304Z,11.53
2017-07-06T08:38:27.131Z,9.43
2017-07-06T08:40:54.076Z,10.10
2017-07-06T08:43:21.719Z,9.67
2017-07-06T08:45:48.564Z,9.00
2017-07-06T08:48:15.471Z,8.70
2017-07-06T08:50:42.315Z,10.27
2017-07-06T08:53:09.127Z,9.93
2017-07-06T08:55:36.087Z,9.73
2017-07-06T08:58:02.919Z,9.67
2017-07-06T09:00:29.828Z,9.20
2017-07-06T09:02:56.739Z,8.70
2017-07-06T09:05:23.565Z,9.10
2017-07-06T09:07:50.489Z,8.33
2017-07-06T09:10:18.062Z,9.20
2017-07-06T09:12:44.913Z,8.90
2017-07-06T09:15:11.842Z,9.17
2017-07-06T09:17:39.463Z,9.53
2017-07-06T09:20:07.703Z,9.10
2017-07-06T09:22:34.549Z,8.00
2017-07-06T09:25:01.471Z,8.33
2017-07-06T09:27:28.295Z,8.53
2017-07-06T09:29:55.147Z,9.27
2017-07-06T09:32:22.803Z,11.23
2017-07-06T09:34:49.636Z,8.10
2017-07-06T09:37:16.485Z,8.50
2017-07-06T09:39:44.151Z,8.70
2017-07-06T09:42:11.742Z,9.07
2017-07-06T09:44:38.558Z,8.60
2017-07-06T09:47:05.476Z,8.27
2017-07-06T09:49:32.324Z,7.90
2017-07-06T09:51:59.299Z,8.33
2017-07-06T09:54:26.202Z,10.10
2017-07-06T09:56:53.029Z,10.00
2017-07-06T09:59:20.051Z,8.17
2017-07-06T10:01:46.875Z,8.00
2017-07-06T10:04:13.713Z,8.30
2017-07-06T10:06:40.631Z,8.60
2017-07-06T10:09:07.459Z,8.03
2017-07-06T10:11:34.319Z,7.47
2017-07-06T10:14:01.242Z,7.10
2017-07-06T10:16:28.071Z,6.67
2017-07-06T10:18:54.943Z,7.37
2017-07-06T10:21:21.852Z,8.20
2017-07-06T10:23:48.691Z,8.50
2017-07-06T10:26:15.625Z,7.50
2017-07-06T10:28:42.553Z,7.20
2017-07-06T10:31:09.383Z,7.33
2017-07-06T10:33:36.589Z,7.27
2017-07-06T10:36:03.460Z,6.93
2017-07-06T10:38:30.351Z,6.87
2017-07-06T10:40:57.309Z,5.97
2017-07-06T10:43:24.887Z,6.87
2017-07-06T10:45:51.769Z,6.73
2017-07-06T10:48:18.611Z,5.90
2017-07-06T10:50:45.528Z,5.87
2017-07-06T10:53:12.403Z,6.03
2017-07-06T10:55:39.262Z,5.70
2017-07-06T10:58:06.345Z,6.77
2017-07-06T11:00:33.912Z,5.93
2017-07-06T11:03:00.848Z,5.77
2017-07-06T11:05:27.756Z,6.07
2017-07-06T11:07:54.717Z,5.40
2017-07-06T11:10:21.553Z,5.80
2017-07-06T11:12:48.475Z,6.00
2017-07-06T11:15:15.311Z,5.77
2017-07-06T11:17:42.177Z,7.53
2017-07-06T11:20:09.091Z,5.70
2017-07-06T11:22:36.039Z,5.40
2017-07-06T11:25:02.879Z,6.17
2017-07-06T11:27:29.874Z,5.60
2017-07-06T11:29:56.690Z,5.03
2017-07-06T11:32:23.535Z,4.90
2017-07-06T11:34:50.451Z,5.57
2017-07-06T11:37:17.282Z,5.57
2017-07-06T11:39:44.233Z,5.40
2017-07-06T11:42:11.073Z,5.20
2017-07-06T11:44:49.985Z,5.47
2017-07-06T11:47:17.744Z,5.43
2017-07-06T11:49:44.587Z,6.03
2017-07-06T11:52:11.446Z,5.60
2017-07-06T11:54:38.358Z,6.00
2017-07-06T11:57:06.063Z,4.87
2017-07-06T11:59:32.920Z,4.77
2017-07-06T12:01:59.939Z,6.30
2017-07-06T12:04:26.809Z,5.63
2017-07-06T12:06:53.656Z,6.40
2017-07-06T12:09:20.633Z,5.37
2017-07-06T12:11:49.195Z,5.60
2017-07-06T12:14:16.035Z,5.00
2017-07-06T12:16:42.950Z,5.40
2017-07-06T12:19:10.555Z,6.33
2017-07-06T12:21:37.386Z,5.67
2017-07-06T12:24:04.634Z,4.73
2017-07-06T12:26:31.471Z,5.10
2017-07-06T12:28:58.372Z,5.10
2017-07-06T12:31:25.211Z,5.27
2017-07-06T12:33:52.145Z,5.47
2017-07-06T12:36:19.072Z,4.57
2017-07-06T12:38:45.933Z,5.00
2017-07-06T12:41:12.832Z,4.77
2017-07-06T12:43:39.658Z,5.70
2017-07-06T12:46:06.587Z,4.00
2017-07-06T12:48:33.443Z,3.70
2017-07-06T12:51:00.303Z,4.77
2017-07-06T12:53:27.938Z,4.60
2017-07-06T12:55:54.768Z,4.23
2017-07-06T12:58:21.688Z,4.00
2017-07-06T13:00:48.718Z,3.50
2017-07-06T13:03:15.589Z,4.70
2017-07-06T13:05:42.451Z,3.97
2017-07-06T13:08:09.344Z,4.07
2017-07-06T13:10:36.271Z,3.90
2017-07-06T13:13:03.124Z,4.50
2017-07-06T13:15:30.780Z,4.70
2017-07-06T13:17:58.375Z,4.00
2017-07-06T13:20:25.207Z,4.20
2017-07-06T13:22:52.122Z,4.63
2017-07-06T13:25:18.950Z,4.13
2017-07-06T13:27:45.785Z,3.80
2017-07-06T13:30:12.700Z,4.40
2017-07-06T13:32:39.545Z,4.20
2017-07-06T13:35:06.413Z,4.10
2017-07-06T13:37:33.319Z,4.27
2017-07-06T13:40:00.167Z,4.07
2017-07-06T13:42:27.104Z,4.63
2017-07-06T13:44:54.685Z,4.10
2017-07-06T13:47:21.524Z,4.20
2017-07-06T13:49:48.559Z,3.50
2017-07-06T13:52:15.469Z,4.20
2017-07-06T13:54:42.525Z,3.60
2017-07-06T13:57:09.376Z,4.73
2017-07-06T13:59:36.217Z,4.03
2017-07-06T14:02:03.501Z,4.23
2017-07-06T14:04:30.349Z,3.73
2017-07-06T14:06:57.229Z,6.73
2017-07-06T14:09:24.268Z,4.17
2017-07-06T14:11:51.193Z,5.57
2017-07-06T14:14:18.029Z,4.40
2017-07-06T14:16:44.927Z,4.87
2017-07-06T14:19:11.812Z,5.50
2017-07-06T14:21:39.482Z,6.27
2017-07-06T14:24:06.317Z,4.20
2017-07-06T14:26:33.148Z,5.50
2017-07-06T14:29:00.787Z,4.67
2017-07-06T14:31:27.627Z,5.10
2017-07-06T14:33:54.465Z,6.00
2017-07-06T14:36:21.387Z,5.90
2017-07-06T14:38:48.288Z,4.87
2017-07-06T14:41:15.951Z,4.50
2017-07-06T14:43:43.639Z,4.63
2017-07-06T14:46:10.489Z,15.07
2017-07-06T14:48:37.331Z,6.10
2017-07-06T14:51:04.256Z,5.87
2017-07-06T14:53:31.836Z,5.50
2017-07-06T14:55:58.758Z,5.17
2017-07-06T14:58:26.332Z,6.10
2017-07-06T15:00:53.180Z,4.97
2017-07-06T15:03:20.155Z,5.80
2017-07-06T15:05:47.011Z,5.80
2017-07-06T15:08:13.989Z,5.57
2017-07-06T15:10:40.819Z,5.53
2017-07-06T15:13:07.683Z,8.63
2017-07-06T15:15:35.340Z,5.80
2017-07-06T15:18:02.275Z,5.37
2017-07-06T15:20:29.109Z,6.60
2017-07-06T15:22:55.947Z,6.00
2017-07-06T15:25:22.860Z,6.60
2017-07-06T15:27:49.691Z,6.47
2017-07-06T15:30:16.625Z,6.60
2017-07-06T15:32:43.459Z,7.30
2017-07-06T15:35:11.087Z,9.60
2017-07-06T15:37:38.065Z,7.30
2017-07-06T15:40:05.638Z,6.57
2017-07-06T15:42:33.222Z,10.77
2017-07-06T15:45:00.127Z,7.30
2017-07-06T15:47:27.698Z,7.57
2017-07-06T15:49:55.327Z,10.03
2017-07-06T15:52:22.228Z,6.67
2017-07-06T15:54:49.126Z,8.80
2017-07-06T15:57:15.969Z,5.67
2017-07-06T15:59:42.971Z,6.47
2017-07-06T16:02:09.831Z,6.40
2017-07-06T16:04:36.648Z,6.47
2017-07-06T16:07:03.630Z,6.77
2017-07-06T16:09:30.472Z,6.63
2017-07-06T16:11:57.299Z,7.67
2017-07-06T16:14:24.208Z,7.77
2017-07-06T16:16:51.789Z,7.97
2017-07-06T16:19:18.694Z,8.67
2017-07-06T16:21:45.537Z,7.23
2017-07-06T16:24:12.360Z,10.10
2017-07-06T16:26:39.286Z,8.90
2017-07-06T16:29:06.132Z,8.10
2017-07-06T16:31:32.951Z,7.10
2017-07-06T16:33:59.847Z,6.63
2017-07-06T16:36:26.688Z,8.90
2017-07-06T16:38:53.506Z,7.83
2017-07-06T16:41:20.399Z,10.40
2017-07-06T16:43:47.219Z,10.20
2017-07-06T16:46:14.159Z,6.40
2017-07-06T16:48:40.999Z,7.20
2017-07-06T16:51:07.834Z,7.10
2017-07-06T16:53:34.723Z,7.30
2017-07-06T16:56:01.550Z,6.57
2017-07-06T16:58:28.439Z,6.90
2017-07-06T17:00:55.279Z,7.73
2017-07-06T17:03:22.123Z,7.50
2017-07-06T17:05:49.099Z,10.43
2017-07-06T17:08:15.933Z,8.17
2017-07-06T17:10:43.810Z,8.27
2017-07-06T17:13:10.751Z,8.93
2017-07-06T17:15:37.594Z,7.67
2017-07-06T17:18:04.420Z,8.27
2017-07-06T17:20:31.395Z,7.47
2017-07-06T17:22:58.243Z,7.63
2017-07-06T17:25:25.155Z,7.90
2017-07-06T17:27:51.978Z,8.07
2017-07-06T17:30:19.637Z,8.33
2017-07-06T17:32:47.203Z,8.00
2017-07-06T17:35:14.776Z,6.33
2017-07-06T17:37:41.690Z,6.27
2017-07-06T17:40:08.516Z,6.77
2017-07-06T17:42:35.402Z,6.53
2017-07-06T17:45:03.026Z,6.73
2017-07-06T17:47:29.886Z,6.13
2017-07-06T17:49:56.736Z,5.80
2017-07-06T17:52:23.702Z,6.30
2017-07-06T17:54:51.269Z,5.97
2017-07-06T17:57:18.165Z,6.50
2017-07-06T17:59:45.040Z,6.63
2017-07-06T18:02:12.728Z,7.63
2017-07-06T18:04:39.678Z,10.10
2017-07-06T18:07:06.503Z,6.97
2017-07-06T18:09:34.077Z,7.47
2017-07-06T18:12:00.972Z,8.33
2017-07-06T18:14:27.804Z,8.73
2017-07-06T18:16:54.785Z,10.43
2017-07-06T18:19:22.389Z,8.70
2017-07-06T18:21:49.232Z,9.97
2017-07-06T18:24:16.132Z,9.67
2017-07-06T18:26:43.701Z,9.50
2017-07-06T18:29:11.270Z,9.33
2017-07-06T18:31:38.227Z,11.43
2017-07-06T18:34:05.068Z,9.97
2017-07-06T18:36:32.007Z,10.37
2017-07-06T18:38:59.583Z,10.93
2017-07-06T18:41:26.434Z,12.17
2017-07-06T18:43:53.347Z,11.57
2017-07-06T18:46:20.950Z,10.57
2017-07-06T18:48:47.792Z,10.67
2017-07-06T18:51:14.723Z,11.27
2017-07-06T18:53:42.486Z,12.07
2017-07-06T18:56:09.403Z,11.00
2017-07-06T18:58:37.069Z,14.00
2017-07-06T19:01:04.647Z,11.43
2017-07-06T19:03:32.300Z,10.23
2017-07-06T19:05:59.875Z,10.70
2017-07-06T19:08:26.711Z,10.40
2017-07-06T19:10:54.349Z,12.23
2017-07-06T19:13:21.193Z,11.63
2017-07-06T19:15:48.088Z,11.13
2017-07-06T19:18:14.919Z,12.37
2017-07-06T19:20:41.821Z,11.47
2017-07-06T19:23:08.651Z,11.27
2017-07-06T19:25:35.475Z,10.93
2017-07-06T19:28:02.377Z,12.43
2017-07-06T19:30:30.035Z,10.63
2017-07-06T19:32:57.659Z,10.83
2017-07-06T19:35:24.535Z,10.37
2017-07-06T19:37:52.107Z,10.97
2017-07-06T19:40:19.665Z,10.40
2017-07-06T19:42:47.309Z,11.80
2017-07-06T19:45:14.140Z,12.10
2017-07-06T19:47:40.968Z,13.10
2017-07-06T19:50:07.935Z,12.13
2017-07-06T19:52:34.851Z,12.70
2017-07-06T19:55:01.670Z,12.63
2017-07-06T19:57:28.599Z,11.87
2017-07-06T19:59:56.168Z,12.37
2017-07-06T20:02:22.995Z,13.63
2017-07-06T20:04:50.654Z,15.33
2017-07-06T20:07:17.496Z,12.27
2017-07-06T20:09:44.329Z,13.13
2017-07-06T20:12:11.236Z,12.33
2017-07-06T20:14:38.132Z,11.00
2017-07-06T20:17:05.027Z,16.07
2017-07-06T20:19:31.860Z,11.03
2017-07-06T20:21:58.771Z,13.17
2017-07-06T20:24:26.327Z,12.63
2017-07-06T20:26:53.148Z,13.37
2017-07-06T20:29:20.046Z,11.27
2017-07-06T20:31:46.893Z,10.17
2017-07-06T20:34:13.728Z,10.47
2017-07-06T20:36:40.660Z,11.27
2017-07-06T20:39:08.277Z,11.90
2017-07-06T20:41:35.099Z,11.57
2017-07-06T20:44:01.995Z,12.03
2017-07-06T20:46:28.839Z,14.53
2017-07-06T20:48:55.853Z,15.70
2017-07-06T20:51:22.666Z,15.53
2017-07-06T20:53:49.554Z,15.87
2017-07-06T20:56:16.444Z,15.20
2017-07-06T20:58:43.335Z,16.07
2017-07-06T21:01:10.213Z,17.00
2017-07-06T21:03:37.090Z,14.93
2017-07-06T21:06:03.905Z,14.57
2017-07-06T21:08:31.461Z,16.30
2017-07-06T21:10:58.343Z,17.70
2017-07-06T21:13:25.219Z,18.07
2017-07-06T21:15:52.114Z,19.93
2017-07-06T21:18:22.051Z,21.43
2017-07-06T21:20:49.028Z,18.70
2017-07-06T21:23:15.925Z,22.50
2017-07-06T21:25:42.766Z,18.67
2017-07-06T21:28:09.611Z,19.67
2017-07-06T21:30:36.554Z,20.50
2017-07-06T21:33:03.388Z,19.03
2017-07-06T21:35:30.333Z,19.77
2017-07-06T21:38:01.835Z,18.03
2017-07-06T21:40:28.747Z,15.60
2017-07-06T21:42:56.378Z,18.70
2017-07-06T21:45:23.198Z,17.97
2017-07-06T21:47:50.033Z,18.30
2017-07-06T21:50:16.939Z,22.20
2017-07-06T21:52:44.520Z,21.40
2017-07-06T21:55:11.420Z,20.73
2017-07-06T21:57:38.320Z,20.80
2017-07-06T22:00:05.222Z,21.63
2017-07-06T22:02:32.131Z,21.67
2017-07-06T22:04:58.960Z,20.90
2017-07-06T22:07:25.791Z,22.13
2017-07-06T22:09:52.689Z,23.53
2017-07-06T22:12:19.513Z,23.33
2017-07-06T22:14:46.360Z,24.83
2017-07-06T22:17:13.295Z,24.10
2017-07-06T22:19:42.376Z,19.77
2017-07-06T22:22:14.571Z,20.07
2017-07-06T22:24:43.009Z,21.87
2017-07-06T22:27:11.436Z,19.20
2017-07-06T22:29:38.339Z,21.27
2017-07-06T22:32:06.694Z,18.70
2017-07-06T22:34:34.378Z,19.83
2017-07-06T22:37:01.385Z,21.07
2017-07-06T22:39:28.397Z,22.70
2017-07-06T22:41:55.240Z,25.53
2017-07-06T22:44:22.758Z,23.17
2017-07-06T22:46:50.014Z,24.83
2017-07-06T22:49:17.794Z,21.00
2017-07-06T22:51:44.768Z,19.60
2017-07-06T22:54:11.595Z,20.47
2017-07-06T22:56:38.559Z,20.60
2017-07-06T22:59:07.468Z,20.87
2017-07-06T23:01:35.884Z,23.03
2017-07-06T23:04:03.531Z,20.37
2017-07-06T23:06:33.943Z,17.57
2017-07-06T23:09:00.787Z,22.30
2017-07-06T23:11:30.262Z,18.40
2017-07-06T23:13:57.184Z,15.23
2017-07-06T23:16:24.070Z,15.50
2017-07-06T23:18:50.948Z,17.67
2017-07-06T23:21:17.866Z,14.20
2017-07-06T23:23:44.711Z,15.80
2017-07-06T23:26:11.954Z,19.13
2017-07-06T23:28:39.247Z,15.83
2017-07-06T23:31:06.374Z,14.67
2017-07-06T23:33:33.585Z,15.90
2017-07-06T23:36:01.195Z,15.43
2017-07-06T23:38:28.307Z,16.87
2017-07-06T23:40:55.176Z,19.27
2017-07-06T23:43:22.124Z,18.67
2017-07-06T23:45:48.999Z,11.90
2017-07-06T23:48:15.837Z,13.67
2017-07-06T23:50:42.754Z,14.80
2017-07-06T23:53:09.580Z,13.77
2017-07-06T23:55:36.424Z,13.53
2017-07-06T23:58:03.302Z,10.20
